sensor_id;sensor_type;location;lat;lon;timestamp;P1;durP1;ratioP1;P2;durP2;ratioP2
70406;SDS011;57821;52.202;0.154;2022-10-22T00:01:15;16.02;;;3.75;;
70406;SDS011;57821;52.202;0.154;2022-10-22T00:03:41;13.82;;;2.03;;
70406;SDS011;57821;52.202;0.154;2022-10-22T00:06:08;17.38;;;2.65;;
70406;SDS011;57821;52.202;0.154;2022-10-22T00:08:34;14.88;;;2.30;;
70406;SDS011;57821;52.202;0.154;2022-10-22T00:11:11;18.80;;;2.40;;
70406;SDS011;57821;52.202;0.154;2022-10-22T00:13:39;22.63;;;2.47;;
70406;SDS011;57821;52.202;0.154;2022-10-22T00:16:06;15.95;;;2.83;;
70406;SDS011;57821;52.202;0.154;2022-10-22T00:18:33;14.48;;;2.25;;
70406;SDS011;57821;52.202;0.154;2022-10-22T00:21:00;15.52;;;2.13;;
70406;SDS011;57821;52.202;0.154;2022-10-22T00:23:27;23.88;;;2.67;;
70406;SDS011;57821;52.202;0.154;2022-10-22T00:25:54;18.80;;;2.42;;
70406;SDS011;57821;52.202;0.154;2022-10-22T00:28:20;14.63;;;2.10;;
70406;SDS011;57821;52.202;0.154;2022-10-22T00:30:47;10.45;;;2.13;;
70406;SDS011;57821;52.202;0.154;2022-10-22T00:33:13;19.13;;;3.25;;
70406;SDS011;57821;52.202;0.154;2022-10-22T00:35:40;16.15;;;2.20;;
70406;SDS011;57821;52.202;0.154;2022-10-22T00:38:06;16.70;;;2.58;;
70406;SDS011;57821;52.202;0.154;2022-10-22T00:40:33;14.32;;;2.20;;
70406;SDS011;57821;52.202;0.154;2022-10-22T00:43:00;16.80;;;2.13;;
70406;SDS011;57821;52.202;0.154;2022-10-22T00:45:26;12.02;;;2.20;;
70406;SDS011;57821;52.202;0.154;2022-10-22T00:50:39;12.83;;;2.03;;
70406;SDS011;57821;52.202;0.154;2022-10-22T00:53:09;15.35;;;3.08;;
70406;SDS011;57821;52.202;0.154;2022-10-22T00:55:42;14.20;;;2.45;;
70406;SDS011;57821;52.202;0.154;2022-10-22T00:58:11;15.68;;;2.55;;
70406;SDS011;57821;52.202;0.154;2022-10-22T01:00:39;18.80;;;2.33;;
70406;SDS011;57821;52.202;0.154;2022-10-22T01:03:05;12.75;;;2.03;;
70406;SDS011;57821;52.202;0.154;2022-10-22T01:05:37;17.15;;;2.55;;
70406;SDS011;57821;52.202;0.154;2022-10-22T01:08:14;19.73;;;2.25;;
70406;SDS011;57821;52.202;0.154;2022-10-22T01:16:32;19.55;;;2.25;;
70406;SDS011;57821;52.202;0.154;2022-10-22T01:19:11;18.90;;;2.20;;
70406;SDS011;57821;52.202;0.154;2022-10-22T01:21:52;15.85;;;2.25;;
70406;SDS011;57821;52.202;0.154;2022-10-22T01:24:31;18.13;;;2.75;;
70406;SDS011;57821;52.202;0.154;2022-10-22T01:27:08;16.85;;;2.00;;
70406;SDS011;57821;52.202;0.154;2022-10-22T01:29:53;11.82;;;2.00;;
70406;SDS011;57821;52.202;0.154;2022-10-22T01:32:25;17.05;;;2.40;;
70406;SDS011;57821;52.202;0.154;2022-10-22T01:34:55;14.10;;;2.25;;
70406;SDS011;57821;52.202;0.154;2022-10-22T01:37:30;15.85;;;2.22;;
70406;SDS011;57821;52.202;0.154;2022-10-22T01:40:02;15.43;;;3.47;;
70406;SDS011;57821;52.202;0.154;2022-10-22T01:42:32;14.63;;;2.10;;
70406;SDS011;57821;52.202;0.154;2022-10-22T01:44:58;20.35;;;2.50;;
70406;SDS011;57821;52.202;0.154;2022-10-22T02:01:02;14.57;;;2.22;;
70406;SDS011;57821;52.202;0.154;2022-10-22T02:03:40;15.90;;;2.03;;
70406;SDS011;57821;52.202;0.154;2022-10-22T02:06:16;14.85;;;2.17;;
70406;SDS011;57821;52.202;0.154;2022-10-22T02:08:45;12.73;;;2.25;;
70406;SDS011;57821;52.202;0.154;2022-10-22T02:11:14;12.07;;;2.28;;
70406;SDS011;57821;52.202;0.154;2022-10-22T02:13:43;14.48;;;2.00;;
70406;SDS011;57821;52.202;0.154;2022-10-22T02:19:03;17.30;;;2.25;;
70406;SDS011;57821;52.202;0.154;2022-10-22T02:21:36;9.15;;;1.63;;
70406;SDS011;57821;52.202;0.154;2022-10-22T02:24:03;11.45;;;1.70;;
70406;SDS011;57821;52.202;0.154;2022-10-22T02:26:40;15.93;;;1.58;;
70406;SDS011;57821;52.202;0.154;2022-10-22T02:29:19;13.15;;;1.58;;
70406;SDS011;57821;52.202;0.154;2022-10-22T02:31:51;11.25;;;1.88;;
70406;SDS011;57821;52.202;0.154;2022-10-22T02:34:22;12.90;;;1.77;;
70406;SDS011;57821;52.202;0.154;2022-10-22T02:36:53;10.65;;;2.10;;
70406;SDS011;57821;52.202;0.154;2022-10-22T02:39:20;10.95;;;1.60;;
70406;SDS011;57821;52.202;0.154;2022-10-22T02:41:48;14.68;;;1.75;;
70406;SDS011;57821;52.202;0.154;2022-10-22T02:44:14;13.38;;;1.60;;
70406;SDS011;57821;52.202;0.154;2022-10-22T02:46:41;18.23;;;1.85;;
70406;SDS011;57821;52.202;0.154;2022-10-22T02:49:08;14.70;;;1.88;;
70406;SDS011;57821;52.202;0.154;2022-10-22T02:51:34;13.25;;;1.70;;
70406;SDS011;57821;52.202;0.154;2022-10-22T02:54:01;12.80;;;1.60;;
70406;SDS011;57821;52.202;0.154;2022-10-22T02:56:27;10.98;;;1.63;;
70406;SDS011;57821;52.202;0.154;2022-10-22T02:58:54;10.63;;;1.52;;
70406;SDS011;57821;52.202;0.154;2022-10-22T03:01:20;11.85;;;1.70;;
70406;SDS011;57821;52.202;0.154;2022-10-22T03:03:47;14.15;;;1.77;;
70406;SDS011;57821;52.202;0.154;2022-10-22T03:06:13;10.35;;;1.83;;
70406;SDS011;57821;52.202;0.154;2022-10-22T03:08:40;10.77;;;1.92;;
70406;SDS011;57821;52.202;0.154;2022-10-22T03:11:07;16.30;;;1.98;;
70406;SDS011;57821;52.202;0.154;2022-10-22T03:13:34;11.68;;;1.92;;
70406;SDS011;57821;52.202;0.154;2022-10-22T03:16:00;13.98;;;1.90;;
70406;SDS011;57821;52.202;0.154;2022-10-22T03:18:27;12.57;;;2.10;;
70406;SDS011;57821;52.202;0.154;2022-10-22T03:20:59;13.75;;;2.20;;
70406;SDS011;57821;52.202;0.154;2022-10-22T03:23:31;12.90;;;1.77;;
70406;SDS011;57821;52.202;0.154;2022-10-22T03:25:58;13.30;;;1.90;;
70406;SDS011;57821;52.202;0.154;2022-10-22T03:28:24;14.35;;;2.10;;
70406;SDS011;57821;52.202;0.154;2022-10-22T03:30:51;6.43;;;1.45;;
70406;SDS011;57821;52.202;0.154;2022-10-22T03:33:18;10.55;;;1.70;;
70406;SDS011;57821;52.202;0.154;2022-10-22T03:35:44;15.20;;;3.45;;
70406;SDS011;57821;52.202;0.154;2022-10-22T03:38:13;11.40;;;2.05;;
70406;SDS011;57821;52.202;0.154;2022-10-22T03:40:40;10.18;;;1.73;;
70406;SDS011;57821;52.202;0.154;2022-10-22T03:43:09;13.80;;;1.90;;
70406;SDS011;57821;52.202;0.154;2022-10-22T03:45:35;15.55;;;1.77;;
70406;SDS011;57821;52.202;0.154;2022-10-22T03:50:33;11.35;;;1.60;;
70406;SDS011;57821;52.202;0.154;2022-10-22T03:52:59;13.18;;;2.03;;
70406;SDS011;57821;52.202;0.154;2022-10-22T03:55:26;13.45;;;2.00;;
70406;SDS011;57821;52.202;0.154;2022-10-22T03:57:52;11.27;;;1.48;;
70406;SDS011;57821;52.202;0.154;2022-10-22T04:00:19;12.50;;;1.98;;
70406;SDS011;57821;52.202;0.154;2022-10-22T04:02:45;15.25;;;1.77;;
70406;SDS011;57821;52.202;0.154;2022-10-22T04:05:12;15.73;;;2.50;;
70406;SDS011;57821;52.202;0.154;2022-10-22T04:07:39;16.25;;;2.70;;
70406;SDS011;57821;52.202;0.154;2022-10-22T04:10:06;16.23;;;2.15;;
70406;SDS011;57821;52.202;0.154;2022-10-22T04:12:33;17.83;;;2.08;;
70406;SDS011;57821;52.202;0.154;2022-10-22T04:14:59;11.07;;;1.77;;
70406;SDS011;57821;52.202;0.154;2022-10-22T04:17:31;15.55;;;2.08;;
70406;SDS011;57821;52.202;0.154;2022-10-22T04:20:02;17.48;;;2.25;;
70406;SDS011;57821;52.202;0.154;2022-10-22T04:22:31;14.32;;;3.47;;
70406;SDS011;57821;52.202;0.154;2022-10-22T04:24:59;17.55;;;2.38;;
70406;SDS011;57821;52.202;0.154;2022-10-22T04:27:28;13.00;;;2.10;;
70406;SDS011;57821;52.202;0.154;2022-10-22T04:29:58;14.93;;;1.85;;
70406;SDS011;57821;52.202;0.154;2022-10-22T04:32:25;17.63;;;2.05;;
70406;SDS011;57821;52.202;0.154;2022-10-22T04:34:52;12.45;;;2.00;;
70406;SDS011;57821;52.202;0.154;2022-10-22T04:37:18;17.27;;;3.13;;
70406;SDS011;57821;52.202;0.154;2022-10-22T04:39:45;11.82;;;1.67;;
70406;SDS011;57821;52.202;0.154;2022-10-22T04:42:11;14.85;;;2.13;;
70406;SDS011;57821;52.202;0.154;2022-10-22T04:44:39;14.27;;;1.75;;
70406;SDS011;57821;52.202;0.154;2022-10-22T04:47:05;10.48;;;1.70;;
70406;SDS011;57821;52.202;0.154;2022-10-22T04:49:32;13.00;;;1.83;;
70406;SDS011;57821;52.202;0.154;2022-10-22T04:51:58;14.13;;;1.67;;
70406;SDS011;57821;52.202;0.154;2022-10-22T04:54:25;10.88;;;1.80;;
70406;SDS011;57821;52.202;0.154;2022-10-22T04:56:57;10.07;;;1.60;;
70406;SDS011;57821;52.202;0.154;2022-10-22T04:59:23;13.30;;;1.80;;
70406;SDS011;57821;52.202;0.154;2022-10-22T05:01:50;11.85;;;1.75;;
70406;SDS011;57821;52.202;0.154;2022-10-22T05:04:16;10.32;;;1.70;;
70406;SDS011;57821;52.202;0.154;2022-10-22T05:06:43;5.30;;;1.13;;
70406;SDS011;57821;52.202;0.154;2022-10-22T05:09:11;6.85;;;1.30;;
70406;SDS011;57821;52.202;0.154;2022-10-22T05:11:40;9.35;;;1.23;;
70406;SDS011;57821;52.202;0.154;2022-10-22T05:14:09;8.98;;;1.13;;
70406;SDS011;57821;52.202;0.154;2022-10-22T05:16:36;10.23;;;1.10;;
70406;SDS011;57821;52.202;0.154;2022-10-22T05:19:03;9.15;;;1.45;;
70406;SDS011;57821;52.202;0.154;2022-10-22T05:21:30;11.60;;;1.58;;
70406;SDS011;57821;52.202;0.154;2022-10-22T05:23:57;7.72;;;1.15;;
70406;SDS011;57821;52.202;0.154;2022-10-22T05:26:24;8.00;;;1.80;;
70406;SDS011;57821;52.202;0.154;2022-10-22T05:28:51;8.70;;;1.25;;
70406;SDS011;57821;52.202;0.154;2022-10-22T05:31:18;10.75;;;1.55;;
70406;SDS011;57821;52.202;0.154;2022-10-22T05:33:45;11.95;;;1.10;;
70406;SDS011;57821;52.202;0.154;2022-10-22T05:36:13;9.93;;;2.30;;
70406;SDS011;57821;52.202;0.154;2022-10-22T05:38:41;6.88;;;1.00;;
70406;SDS011;57821;52.202;0.154;2022-10-22T05:41:08;16.25;;;1.95;;
70406;SDS011;57821;52.202;0.154;2022-10-22T05:43:37;8.20;;;1.90;;
70406;SDS011;57821;52.202;0.154;2022-10-22T05:46:07;7.72;;;1.02;;
70406;SDS011;57821;52.202;0.154;2022-10-22T05:48:36;8.57;;;1.80;;
70406;SDS011;57821;52.202;0.154;2022-10-22T05:51:03;5.45;;;0.82;;
70406;SDS011;57821;52.202;0.154;2022-10-22T05:53:31;11.75;;;1.40;;
70406;SDS011;57821;52.202;0.154;2022-10-22T05:55:59;6.85;;;1.00;;
70406;SDS011;57821;52.202;0.154;2022-10-22T05:58:30;7.85;;;1.30;;
70406;SDS011;57821;52.202;0.154;2022-10-22T06:01:03;5.90;;;0.80;;
70406;SDS011;57821;52.202;0.154;2022-10-22T06:03:54;8.07;;;0.85;;
70406;SDS011;57821;52.202;0.154;2022-10-22T06:08:53;12.40;;;2.28;;
70406;SDS011;57821;52.202;0.154;2022-10-22T06:11:21;11.45;;;0.98;;
70406;SDS011;57821;52.202;0.154;2022-10-22T06:13:49;11.98;;;1.00;;
70406;SDS011;57821;52.202;0.154;2022-10-22T06:16:16;6.88;;;1.27;;
70406;SDS011;57821;52.202;0.154;2022-10-22T06:18:43;9.07;;;1.45;;
70406;SDS011;57821;52.202;0.154;2022-10-22T06:21:10;7.38;;;1.27;;
70406;SDS011;57821;52.202;0.154;2022-10-22T06:23:38;8.30;;;1.70;;
70406;SDS011;57821;52.202;0.154;2022-10-22T06:26:06;6.82;;;0.98;;
70406;SDS011;57821;52.202;0.154;2022-10-22T06:28:33;10.75;;;1.33;;
70406;SDS011;57821;52.202;0.154;2022-10-22T06:31:00;10.48;;;1.25;;
70406;SDS011;57821;52.202;0.154;2022-10-22T06:33:27;7.75;;;1.27;;
70406;SDS011;57821;52.202;0.154;2022-10-22T06:36:03;10.35;;;1.50;;
70406;SDS011;57821;52.202;0.154;2022-10-22T06:38:33;13.20;;;1.60;;
70406;SDS011;57821;52.202;0.154;2022-10-22T06:41:03;12.40;;;1.20;;
70406;SDS011;57821;52.202;0.154;2022-10-22T06:43:31;10.50;;;1.85;;
70406;SDS011;57821;52.202;0.154;2022-10-22T06:46:01;8.52;;;1.58;;
70406;SDS011;57821;52.202;0.154;2022-10-22T06:50:55;9.30;;;1.35;;
70406;SDS011;57821;52.202;0.154;2022-10-22T06:53:27;12.35;;;1.60;;
70406;SDS011;57821;52.202;0.154;2022-10-22T06:55:53;12.95;;;1.60;;
70406;SDS011;57821;52.202;0.154;2022-10-22T06:58:20;12.10;;;1.60;;
70406;SDS011;57821;52.202;0.154;2022-10-22T07:00:46;9.00;;;1.30;;
70406;SDS011;57821;52.202;0.154;2022-10-22T07:03:13;12.70;;;1.60;;
70406;SDS011;57821;52.202;0.154;2022-10-22T07:05:40;9.75;;;1.42;;
70406;SDS011;57821;52.202;0.154;2022-10-22T07:08:07;9.32;;;1.50;;
70406;SDS011;57821;52.202;0.154;2022-10-22T07:10:33;10.32;;;2.20;;
70406;SDS011;57821;52.202;0.154;2022-10-22T07:13:00;11.10;;;1.45;;
70406;SDS011;57821;52.202;0.154;2022-10-22T07:15:26;14.52;;;1.40;;
70406;SDS011;57821;52.202;0.154;2022-10-22T07:17:53;11.27;;;1.50;;
70406;SDS011;57821;52.202;0.154;2022-10-22T07:20:19;9.90;;;2.03;;
70406;SDS011;57821;52.202;0.154;2022-10-22T07:22:46;12.18;;;1.35;;
70406;SDS011;57821;52.202;0.154;2022-10-22T07:25:12;12.75;;;2.00;;
70406;SDS011;57821;52.202;0.154;2022-10-22T07:27:38;8.98;;;1.45;;
70406;SDS011;57821;52.202;0.154;2022-10-22T07:30:06;13.43;;;1.40;;
70406;SDS011;57821;52.202;0.154;2022-10-22T07:32:33;14.35;;;1.70;;
70406;SDS011;57821;52.202;0.154;2022-10-22T07:34:59;13.63;;;2.25;;
70406;SDS011;57821;52.202;0.154;2022-10-22T07:37:26;16.08;;;1.45;;
70406;SDS011;57821;52.202;0.154;2022-10-22T07:39:52;11.98;;;1.90;;
70406;SDS011;57821;52.202;0.154;2022-10-22T07:42:19;14.43;;;1.45;;
70406;SDS011;57821;52.202;0.154;2022-10-22T07:44:45;16.33;;;2.05;;
70406;SDS011;57821;52.202;0.154;2022-10-22T07:47:12;7.50;;;1.40;;
70406;SDS011;57821;52.202;0.154;2022-10-22T07:49:38;6.53;;;1.58;;
70406;SDS011;57821;52.202;0.154;2022-10-22T07:52:05;9.93;;;1.52;;
70406;SDS011;57821;52.202;0.154;2022-10-22T07:54:32;11.07;;;2.05;;
70406;SDS011;57821;52.202;0.154;2022-10-22T07:56:59;11.63;;;1.85;;
70406;SDS011;57821;52.202;0.154;2022-10-22T07:59:25;14.45;;;1.77;;
70406;SDS011;57821;52.202;0.154;2022-10-22T08:01:52;13.95;;;2.60;;
70406;SDS011;57821;52.202;0.154;2022-10-22T08:04:18;12.18;;;1.63;;
70406;SDS011;57821;52.202;0.154;2022-10-22T08:06:45;10.20;;;1.70;;
70406;SDS011;57821;52.202;0.154;2022-10-22T08:09:13;13.02;;;1.80;;
70406;SDS011;57821;52.202;0.154;2022-10-22T08:11:39;17.98;;;2.53;;
70406;SDS011;57821;52.202;0.154;2022-10-22T08:14:06;13.23;;;2.05;;
70406;SDS011;57821;52.202;0.154;2022-10-22T08:16:32;11.90;;;1.92;;
70406;SDS011;57821;52.202;0.154;2022-10-22T08:18:59;13.73;;;1.55;;
70406;SDS011;57821;52.202;0.154;2022-10-22T08:21:25;18.10;;;1.83;;
70406;SDS011;57821;52.202;0.154;2022-10-22T08:23:52;12.77;;;1.63;;
70406;SDS011;57821;52.202;0.154;2022-10-22T08:26:18;16.38;;;1.63;;
70406;SDS011;57821;52.202;0.154;2022-10-22T08:28:45;16.27;;;2.00;;
70406;SDS011;57821;52.202;0.154;2022-10-22T08:31:12;11.07;;;1.58;;
70406;SDS011;57821;52.202;0.154;2022-10-22T08:33:38;14.77;;;2.25;;
70406;SDS011;57821;52.202;0.154;2022-10-22T08:36:05;17.42;;;2.22;;
70406;SDS011;57821;52.202;0.154;2022-10-22T08:38:32;13.95;;;2.00;;
70406;SDS011;57821;52.202;0.154;2022-10-22T08:41:13;13.15;;;2.08;;
70406;SDS011;57821;52.202;0.154;2022-10-22T08:46:37;15.93;;;2.30;;
70406;SDS011;57821;52.202;0.154;2022-10-22T08:49:30;14.75;;;2.17;;
70406;SDS011;57821;52.202;0.154;2022-10-22T08:52:06;13.65;;;2.33;;
70406;SDS011;57821;52.202;0.154;2022-10-22T09:00:10;14.30;;;3.63;;
70406;SDS011;57821;52.202;0.154;2022-10-22T09:05:45;16.30;;;2.20;;
70406;SDS011;57821;52.202;0.154;2022-10-22T09:08:22;15.38;;;1.98;;
70406;SDS011;57821;52.202;0.154;2022-10-22T09:10:53;12.90;;;2.70;;
70406;SDS011;57821;52.202;0.154;2022-10-22T09:13:27;21.65;;;4.50;;
70406;SDS011;57821;52.202;0.154;2022-10-22T09:15:56;15.88;;;3.72;;
70406;SDS011;57821;52.202;0.154;2022-10-22T09:21:12;17.73;;;2.28;;
70406;SDS011;57821;52.202;0.154;2022-10-22T09:26:26;15.77;;;2.30;;
70406;SDS011;57821;52.202;0.154;2022-10-22T09:28:53;16.85;;;2.58;;
70406;SDS011;57821;52.202;0.154;2022-10-22T09:31:19;16.08;;;2.33;;
70406;SDS011;57821;52.202;0.154;2022-10-22T09:33:46;18.42;;;2.40;;
70406;SDS011;57821;52.202;0.154;2022-10-22T09:36:16;18.08;;;3.17;;
70406;SDS011;57821;52.202;0.154;2022-10-22T09:38:48;16.88;;;2.95;;
70406;SDS011;57821;52.202;0.154;2022-10-22T09:41:22;11.80;;;2.37;;
70406;SDS011;57821;52.202;0.154;2022-10-22T09:43:51;16.60;;;3.67;;
70406;SDS011;57821;52.202;0.154;2022-10-22T09:46:19;11.45;;;1.83;;
70406;SDS011;57821;52.202;0.154;2022-10-22T09:48:56;12.15;;;2.63;;
70406;SDS011;57821;52.202;0.154;2022-10-22T09:51:35;13.45;;;2.03;;
70406;SDS011;57821;52.202;0.154;2022-10-22T09:54:18;14.40;;;2.58;;
70406;SDS011;57821;52.202;0.154;2022-10-22T09:56:47;12.00;;;2.20;;
70406;SDS011;57821;52.202;0.154;2022-10-22T10:01:44;14.65;;;2.70;;
70406;SDS011;57821;52.202;0.154;2022-10-22T10:04:12;13.85;;;2.38;;
70406;SDS011;57821;52.202;0.154;2022-10-22T10:06:42;14.93;;;2.20;;
70406;SDS011;57821;52.202;0.154;2022-10-22T10:09:17;17.05;;;2.78;;
70406;SDS011;57821;52.202;0.154;2022-10-22T10:11:56;16.92;;;2.35;;
70406;SDS011;57821;52.202;0.154;2022-10-22T10:14:38;9.75;;;1.58;;
70406;SDS011;57821;52.202;0.154;2022-10-22T10:17:16;14.38;;;2.05;;
70406;SDS011;57821;52.202;0.154;2022-10-22T10:22:23;11.85;;;3.60;;
70406;SDS011;57821;52.202;0.154;2022-10-22T10:30:19;13.20;;;2.30;;
70406;SDS011;57821;52.202;0.154;2022-10-22T10:32:56;19.05;;;2.90;;
70406;SDS011;57821;52.202;0.154;2022-10-22T10:35:35;10.52;;;2.20;;
70406;SDS011;57821;52.202;0.154;2022-10-22T10:38:31;11.82;;;2.58;;
70406;SDS011;57821;52.202;0.154;2022-10-22T10:44:04;12.82;;;2.10;;
70406;SDS011;57821;52.202;0.154;2022-10-22T10:49:39;13.13;;;2.55;;
70406;SDS011;57821;52.202;0.154;2022-10-22T10:58:09;16.60;;;2.95;;
70406;SDS011;57821;52.202;0.154;2022-10-22T11:00:46;18.25;;;2.78;;
70406;SDS011;57821;52.202;0.154;2022-10-22T11:06:16;9.93;;;2.05;;
70406;SDS011;57821;52.202;0.154;2022-10-22T11:14:22;14.27;;;2.22;;
70406;SDS011;57821;52.202;0.154;2022-10-22T11:16:57;10.52;;;1.70;;
70406;SDS011;57821;52.202;0.154;2022-10-22T11:19:40;13.88;;;2.17;;
70406;SDS011;57821;52.202;0.154;2022-10-22T11:22:28;9.52;;;2.00;;
70406;SDS011;57821;52.202;0.154;2022-10-22T11:27:38;12.75;;;2.40;;
70406;SDS011;57821;52.202;0.154;2022-10-22T11:30:34;12.18;;;2.05;;
70406;SDS011;57821;52.202;0.154;2022-10-22T11:33:04;11.13;;;1.80;;
70406;SDS011;57821;52.202;0.154;2022-10-22T11:35:37;7.15;;;1.60;;
70406;SDS011;57821;52.202;0.154;2022-10-22T11:38:09;12.93;;;2.60;;
70406;SDS011;57821;52.202;0.154;2022-10-22T11:40:59;10.88;;;2.08;;
70406;SDS011;57821;52.202;0.154;2022-10-22T11:46:25;10.48;;;1.48;;
70406;SDS011;57821;52.202;0.154;2022-10-22T11:51:42;11.23;;;2.25;;
70406;SDS011;57821;52.202;0.154;2022-10-22T12:02:45;14.45;;;2.22;;
70406;SDS011;57821;52.202;0.154;2022-10-22T12:05:17;10.40;;;1.83;;
70406;SDS011;57821;52.202;0.154;2022-10-22T12:07:50;12.80;;;2.10;;
70406;SDS011;57821;52.202;0.154;2022-10-22T12:10:26;11.32;;;1.67;;
70406;SDS011;57821;52.202;0.154;2022-10-22T12:13:13;15.85;;;2.40;;
70406;SDS011;57821;52.202;0.154;2022-10-22T12:15:47;15.25;;;1.90;;
70406;SDS011;57821;52.202;0.154;2022-10-22T12:18:16;10.80;;;2.83;;
70406;SDS011;57821;52.202;0.154;2022-10-22T12:20:43;13.68;;;1.90;;
70406;SDS011;57821;52.202;0.154;2022-10-22T12:23:14;16.83;;;2.97;;
70406;SDS011;57821;52.202;0.154;2022-10-22T12:25:41;10.02;;;1.83;;
70406;SDS011;57821;52.202;0.154;2022-10-22T12:28:09;13.02;;;2.17;;
70406;SDS011;57821;52.202;0.154;2022-10-22T12:30:37;14.50;;;1.98;;
70406;SDS011;57821;52.202;0.154;2022-10-22T12:33:05;8.02;;;1.38;;
70406;SDS011;57821;52.202;0.154;2022-10-22T12:35:33;22.15;;;2.80;;
70406;SDS011;57821;52.202;0.154;2022-10-22T12:38:11;13.82;;;2.22;;
70406;SDS011;57821;52.202;0.154;2022-10-22T12:40:42;12.80;;;2.08;;
70406;SDS011;57821;52.202;0.154;2022-10-22T12:43:15;15.52;;;2.47;;
70406;SDS011;57821;52.202;0.154;2022-10-22T12:45:50;10.80;;;2.13;;
70406;SDS011;57821;52.202;0.154;2022-10-22T12:48:18;13.10;;;2.28;;
70406;SDS011;57821;52.202;0.154;2022-10-22T12:50:52;17.15;;;2.70;;
70406;SDS011;57821;52.202;0.154;2022-10-22T12:55:53;13.00;;;2.60;;
70406;SDS011;57821;52.202;0.154;2022-10-22T12:58:23;14.32;;;3.10;;
70406;SDS011;57821;52.202;0.154;2022-10-22T13:00:53;14.75;;;2.75;;
70406;SDS011;57821;52.202;0.154;2022-10-22T13:03:40;15.45;;;2.80;;
70406;SDS011;57821;52.202;0.154;2022-10-22T13:11:38;18.02;;;2.83;;
70406;SDS011;57821;52.202;0.154;2022-10-22T13:19:47;13.13;;;2.55;;
70406;SDS011;57821;52.202;0.154;2022-10-22T13:22:35;16.83;;;2.80;;
70406;SDS011;57821;52.202;0.154;2022-10-22T13:27:43;17.63;;;3.22;;
70406;SDS011;57821;52.202;0.154;2022-10-22T13:30:17;14.00;;;2.22;;
70406;SDS011;57821;52.202;0.154;2022-10-22T13:32:49;15.00;;;2.53;;
70406;SDS011;57821;52.202;0.154;2022-10-22T13:35:19;13.30;;;2.20;;
70406;SDS011;57821;52.202;0.154;2022-10-22T13:37:49;16.50;;;3.45;;
70406;SDS011;57821;52.202;0.154;2022-10-22T13:40:16;11.50;;;1.52;;
70406;SDS011;57821;52.202;0.154;2022-10-22T13:42:43;14.73;;;2.00;;
70406;SDS011;57821;52.202;0.154;2022-10-22T13:45:10;12.13;;;1.67;;
70406;SDS011;57821;52.202;0.154;2022-10-22T13:47:37;15.25;;;2.67;;
70406;SDS011;57821;52.202;0.154;2022-10-22T13:50:15;14.30;;;2.20;;
70406;SDS011;57821;52.202;0.154;2022-10-22T13:52:51;17.33;;;2.55;;
70406;SDS011;57821;52.202;0.154;2022-10-22T13:55:25;16.63;;;2.70;;
70406;SDS011;57821;52.202;0.154;2022-10-22T13:58:08;14.23;;;2.90;;
70406;SDS011;57821;52.202;0.154;2022-10-22T14:00:37;14.95;;;2.58;;
70406;SDS011;57821;52.202;0.154;2022-10-22T14:03:07;17.85;;;2.47;;
70406;SDS011;57821;52.202;0.154;2022-10-22T14:05:36;14.70;;;2.03;;
70406;SDS011;57821;52.202;0.154;2022-10-22T14:08:03;13.40;;;2.15;;
70406;SDS011;57821;52.202;0.154;2022-10-22T14:10:34;13.40;;;2.33;;
70406;SDS011;57821;52.202;0.154;2022-10-22T14:13:01;17.13;;;2.08;;
70406;SDS011;57821;52.202;0.154;2022-10-22T14:15:27;12.80;;;2.10;;
70406;SDS011;57821;52.202;0.154;2022-10-22T14:17:55;13.88;;;4.00;;
70406;SDS011;57821;52.202;0.154;2022-10-22T14:20:24;11.75;;;2.25;;
70406;SDS011;57821;52.202;0.154;2022-10-22T14:22:54;14.55;;;2.28;;
70406;SDS011;57821;52.202;0.154;2022-10-22T14:25:22;11.63;;;2.10;;
70406;SDS011;57821;52.202;0.154;2022-10-22T14:27:50;13.18;;;2.28;;
70406;SDS011;57821;52.202;0.154;2022-10-22T14:30:18;11.30;;;1.92;;
70406;SDS011;57821;52.202;0.154;2022-10-22T14:32:46;15.13;;;2.20;;
70406;SDS011;57821;52.202;0.154;2022-10-22T14:35:17;9.82;;;1.70;;
70406;SDS011;57821;52.202;0.154;2022-10-22T14:37:47;17.63;;;2.03;;
70406;SDS011;57821;52.202;0.154;2022-10-22T14:40:15;14.05;;;2.25;;
70406;SDS011;57821;52.202;0.154;2022-10-22T14:42:45;13.68;;;2.38;;
70406;SDS011;57821;52.202;0.154;2022-10-22T14:45:30;16.77;;;2.70;;
70406;SDS011;57821;52.202;0.154;2022-10-22T14:47:57;9.55;;;1.83;;
70406;SDS011;57821;52.202;0.154;2022-10-22T14:50:23;11.48;;;1.90;;
70406;SDS011;57821;52.202;0.154;2022-10-22T14:52:50;16.02;;;2.40;;
70406;SDS011;57821;52.202;0.154;2022-10-22T14:55:17;20.85;;;2.97;;
70406;SDS011;57821;52.202;0.154;2022-10-22T14:57:44;12.98;;;2.05;;
70406;SDS011;57821;52.202;0.154;2022-10-22T15:00:12;14.63;;;2.70;;
70406;SDS011;57821;52.202;0.154;2022-10-22T15:02:41;13.10;;;2.38;;
70406;SDS011;57821;52.202;0.154;2022-10-22T15:05:08;16.55;;;2.67;;
70406;SDS011;57821;52.202;0.154;2022-10-22T15:07:36;15.63;;;2.15;;
70406;SDS011;57821;52.202;0.154;2022-10-22T15:10:03;11.02;;;1.80;;
70406;SDS011;57821;52.202;0.154;2022-10-22T15:12:31;13.00;;;2.25;;
70406;SDS011;57821;52.202;0.154;2022-10-22T15:14:58;17.60;;;3.67;;
70406;SDS011;57821;52.202;0.154;2022-10-22T15:17:24;14.00;;;1.92;;
70406;SDS011;57821;52.202;0.154;2022-10-22T15:19:51;7.55;;;1.60;;
70406;SDS011;57821;52.202;0.154;2022-10-22T15:22:17;14.23;;;2.45;;
70406;SDS011;57821;52.202;0.154;2022-10-22T15:24:44;13.95;;;1.90;;
70406;SDS011;57821;52.202;0.154;2022-10-22T15:27:11;15.55;;;2.80;;
70406;SDS011;57821;52.202;0.154;2022-10-22T15:29:37;14.43;;;2.17;;
70406;SDS011;57821;52.202;0.154;2022-10-22T15:32:05;14.02;;;2.17;;
70406;SDS011;57821;52.202;0.154;2022-10-22T15:34:32;13.85;;;2.85;;
70406;SDS011;57821;52.202;0.154;2022-10-22T15:37:01;9.38;;;2.00;;
70406;SDS011;57821;52.202;0.154;2022-10-22T15:39:29;18.02;;;2.63;;
70406;SDS011;57821;52.202;0.154;2022-10-22T15:41:57;12.57;;;2.60;;
70406;SDS011;57821;52.202;0.154;2022-10-22T15:44:28;11.55;;;2.05;;
70406;SDS011;57821;52.202;0.154;2022-10-22T15:46:56;18.02;;;2.60;;
70406;SDS011;57821;52.202;0.154;2022-10-22T15:49:24;11.75;;;2.08;;
70406;SDS011;57821;52.202;0.154;2022-10-22T15:51:52;16.35;;;2.97;;
70406;SDS011;57821;52.202;0.154;2022-10-22T15:54:19;16.88;;;2.72;;
70406;SDS011;57821;52.202;0.154;2022-10-22T15:56:47;14.45;;;3.28;;
70406;SDS011;57821;52.202;0.154;2022-10-22T15:59:15;18.27;;;3.35;;
70406;SDS011;57821;52.202;0.154;2022-10-22T16:01:42;17.10;;;3.47;;
70406;SDS011;57821;52.202;0.154;2022-10-22T16:04:09;15.57;;;3.97;;
70406;SDS011;57821;52.202;0.154;2022-10-22T16:09:10;25.05;;;10.07;;
70406;SDS011;57821;52.202;0.154;2022-10-22T16:11:40;24.50;;;9.45;;
70406;SDS011;57821;52.202;0.154;2022-10-22T16:14:08;22.77;;;8.00;;
70406;SDS011;57821;52.202;0.154;2022-10-22T16:16:36;28.65;;;9.02;;
70406;SDS011;57821;52.202;0.154;2022-10-22T16:19:02;16.23;;;5.80;;
70406;SDS011;57821;52.202;0.154;2022-10-22T16:21:29;14.27;;;4.30;;
70406;SDS011;57821;52.202;0.154;2022-10-22T16:23:55;17.90;;;3.78;;
70406;SDS011;57821;52.202;0.154;2022-10-22T16:26:22;17.17;;;3.17;;
70406;SDS011;57821;52.202;0.154;2022-10-22T16:28:48;12.60;;;3.08;;
70406;SDS011;57821;52.202;0.154;2022-10-22T16:31:16;12.15;;;2.45;;
70406;SDS011;57821;52.202;0.154;2022-10-22T16:33:43;17.08;;;2.70;;
70406;SDS011;57821;52.202;0.154;2022-10-22T16:36:15;18.63;;;3.00;;
70406;SDS011;57821;52.202;0.154;2022-10-22T16:38:44;19.55;;;3.30;;
70406;SDS011;57821;52.202;0.154;2022-10-22T16:41:12;14.27;;;3.45;;
70406;SDS011;57821;52.202;0.154;2022-10-22T16:43:41;14.63;;;2.75;;
70406;SDS011;57821;52.202;0.154;2022-10-22T16:46:09;12.95;;;3.83;;